Meteorología y climatología de Navarra
Datos de la estación - Meteo Navarra

Estación de Bardenas (El Yugo) GN

Altitud 486 m.


Datos desde el 26/03/2020 hasta el 27/03/2020 en horario solar
Los datos son PROVISIONALES

Anterior Página 1 de 1 Siguiente Descargar: Formato para Excel 2000 o superior   Formato csv   Formato para OpenOffice Calc
Fecha Temperatura Humedad relativa Radiación global Insolación Precipitación Vel. viento 10 m Vel. viento 10 m Dir. viento 10 m
ºC % W/m² s l/m² m/s km/h º
26/03/2020 0:00 2.6 90 0.0 0 0.0 4.6 16.5 320
26/03/2020 0:10 2.6 84 0.0 0 0.0 4.1 14.7 307
26/03/2020 0:20 2.3 86 0.0 0 0.0 4.6 16.4 305
26/03/2020 0:30 2.4 80 0.0 0 0.0 4.9 17.7 311
26/03/2020 0:40 2.5 80 0.0 0 0.0 5.0 17.9 308
26/03/2020 0:50 2.6 79 0.0 0 0.0 4.4 16.0 315
26/03/2020 1:00 2.6 79 0.0 0 0.0 4.4 15.7 307
26/03/2020 1:10 2.6 80 0.0 0 0.0 5.2 18.8 303
26/03/2020 1:20 3.2 78 0.0 0 0.0 6.2 22.2 306
26/03/2020 1:30 3.5 77 0.0 0 0.0 6.0 21.6 304
26/03/2020 1:40 3.7 77 0.0 0 0.0 6.4 23.1 307
26/03/2020 1:50 4.0 75 0.0 0 0.0 6.5 23.5 302
26/03/2020 2:00 3.8 76 0.0 0 0.0 6.6 23.7 303
26/03/2020 2:10 3.7 76 0.0 0 0.0 5.8 20.8 310
26/03/2020 2:20 3.7 77 0.0 0 0.0 5.8 21.0 322
26/03/2020 2:30 3.9 76 0.0 0 0.0 6.6 23.6 322
26/03/2020 2:40 4.2 75 0.0 0 0.0 6.5 23.5 324
26/03/2020 2:50 4.4 75 0.0 0 0.0 6.3 22.8 320
26/03/2020 3:00 4.5 75 0.0 0 0.0 6.1 21.8 324
26/03/2020 3:10 4.6 75 0.0 0 0.0 6.3 22.7 324
26/03/2020 3:20 4.8 75 0.0 0 0.0 6.1 22.1 317
26/03/2020 3:30 5.2 74 0.0 0 0.0 5.9 21.1 312
26/03/2020 3:40 5.1 74 0.0 0 0.0 6.3 22.8 306
26/03/2020 3:50 5.1 75 0.0 0 0.0 5.9 21.4 313
26/03/2020 4:00 5.0 76 0.0 0 0.0 6.7 24.1 322
26/03/2020 4:10 4.9 76 0.0 0 0.0 6.1 22.1 315
26/03/2020 4:20 4.9 76 0.0 0 0.0 5.9 21.1 322
26/03/2020 4:30 4.8 76 0.0 0 0.0 5.5 19.7 326
26/03/2020 4:40 4.6 77 0.0 0 0.0 5.5 19.7 324
26/03/2020 4:50 4.7 77 0.0 0 0.0 5.3 18.9 317
26/03/2020 5:00 4.9 77 0.0 0 0.0 5.3 18.9 307
26/03/2020 5:10 5.1 77 0.0 0 0.0 5.7 20.3 305
26/03/2020 5:20 5.2 77 0.0 0 0.0 6.3 22.8 307
26/03/2020 5:30 5.2 76 0.0 0 0.0 6.9 24.8 304
26/03/2020 5:40 5.2 76 0.0 0 0.0 6.3 22.5 304
26/03/2020 5:50 5.3 77 0.0 0 0.0 5.4 19.5 309
26/03/2020 6:00 5.4 77 0.0 0 0.0 5.6 20.0 307
26/03/2020 6:10 5.4 77 0.0 0 0.0 6.2 22.1 309
26/03/2020 6:20 5.3 77 0.0 0 0.0 5.5 19.8 311
26/03/2020 6:30 5.4 77 14.5 0 0.0 5.3 19.0 308
26/03/2020 6:40 5.3 78 20.9 0 0.0 5.3 19.2 303
26/03/2020 6:50 5.4 79 22.9 0 0.0 4.9 17.5 306
26/03/2020 7:00 5.3 81 45.1 0 0.0 3.7 13.2 301
26/03/2020 7:10 5.3 81 27.8 0 0.0 3.1 11.3 295
26/03/2020 7:20 5.4 79 42.2 0 0.0 2.6 9.4 299
26/03/2020 7:30 5.7 78 68.8 0 0.0 3.7 13.4 303
26/03/2020 7:40 5.8 78 26.4 0 0.0 4.1 14.8 302
26/03/2020 7:50 5.9 76 78.5 22 0.0 5.0 17.9 311
26/03/2020 8:00 6.1 75 42.6 0 0.0 5.5 19.6 307
26/03/2020 8:10 6.5 73 312.4 390 0.0 5.7 20.5 312
26/03/2020 8:20 7.1 70 234.8 166 0.0 6.0 21.6 316
26/03/2020 8:30 7.3 69 330.4 364 0.0 6.8 24.4 310
26/03/2020 8:40 7.3 70 199.5 100 0.0 5.9 21.2 313
26/03/2020 8:50 7.1 70 215.0 90 0.0 6.5 23.5 305
26/03/2020 9:00 6.9 71 53.9 0 0.0 6.0 21.5 310
26/03/2020 9:10 6.6 71 53.6 0 0.0 6.1 22.1 313
26/03/2020 9:20 6.6 72 88.1 0 0.0 5.0 17.8 324
26/03/2020 9:30 6.9 70 100.3 6 0.0 5.1 18.3 334
26/03/2020 9:40 7.2 69 369.3 250 0.0 5.2 18.5 353
26/03/2020 9:50 8.7 59 343.3 216 0.0 7.0 25.3 355
26/03/2020 10:00 7.9 55 128.2 0 0.0 8.2 29.6 0
26/03/2020 10:10 7.8 54 232.3 10 0.0 7.9 28.5 2
26/03/2020 10:20 8.6 50 533.5 340 0.0 8.6 30.8 0
26/03/2020 10:30 9.4 46 446.6 264 0.0 9.2 33.1 6
26/03/2020 10:40 8.6 48 308.4 60 0.0 10.1 36.3 11
26/03/2020 10:50 8.6 46 363.7 112 0.0 10.6 38.1 10
26/03/2020 11:00 8.7 47 454.6 226 0.0 9.3 33.4 13
26/03/2020 11:10 9.4 45 554.8 304 0.0 11.6 41.8 16
26/03/2020 11:20 9.0 46 584.8 300 0.0 9.8 35.3 7
26/03/2020 11:30 10.0 45 752.7 486 0.0 8.7 31.4 359
26/03/2020 11:40 9.8 43 853.0 600 0.0 10.8 38.9 2
26/03/2020 11:50 9.9 43 852.0 600 0.0 10.1 36.4 11
26/03/2020 12:00 10.5 43 841.0 594 0.0 8.1 29.1 355
26/03/2020 12:10 10.1 42 861.0 600 0.0 9.9 35.5 358
26/03/2020 12:20 10.2 43 839.0 586 0.0 9.8 35.2 6
26/03/2020 12:30 10.4 43 787.2 538 0.0 7.9 28.5 360
26/03/2020 12:40 10.5 41 852.0 600 0.0 7.8 28.0 348
26/03/2020 12:50 10.7 41 839.0 600 0.0 7.4 26.6 354
26/03/2020 13:00 10.8 40 840.0 600 0.0 8.6 31.1 0
26/03/2020 13:10 10.6 37 832.0 600 0.0 8.9 31.9 359
26/03/2020 13:20 10.8 38 815.0 600 0.0 7.9 28.4 348
26/03/2020 13:30 10.7 36 797.1 600 0.0 7.9 28.4 356
26/03/2020 13:40 10.8 38 736.1 572 0.0 7.9 28.4 4
26/03/2020 13:50 10.8 37 642.6 474 0.0 7.2 25.9 6
26/03/2020 14:00 10.7 35 761.4 600 0.0 9.0 32.5 14
26/03/2020 14:10 11.0 37 735.5 600 0.0 7.1 25.5 2
26/03/2020 14:20 11.1 35 720.2 600 0.0 8.7 31.4 8
26/03/2020 14:30 10.7 35 698.5 600 0.0 9.4 33.8 6
26/03/2020 14:40 10.9 34 677.0 600 0.0 7.1 25.6 354
26/03/2020 14:50 10.8 34 650.6 600 0.0 8.7 31.2 3
26/03/2020 15:00 10.7 33 627.0 600 0.0 8.9 32.1 12
26/03/2020 15:10 10.6 33 594.1 600 0.0 8.5 30.6 4
26/03/2020 15:20 10.7 34 557.7 600 0.0 7.1 25.7 356
26/03/2020 15:30 10.7 33 525.9 600 0.0 7.9 28.3 8
26/03/2020 15:40 10.5 33 498.7 600 0.0 8.3 29.8 7
26/03/2020 15:50 10.3 33 472.1 600 0.0 8.4 30.2 6
26/03/2020 16:00 10.3 33 437.2 600 0.0 8.4 30.1 8
26/03/2020 16:10 10.2 33 403.5 600 0.0 8.6 30.9 13
26/03/2020 16:20 9.9 33 373.9 600 0.0 8.7 31.2 11
26/03/2020 16:30 9.7 33 340.8 600 0.0 8.7 31.3 15
26/03/2020 16:40 9.6 33 303.6 600 0.0 9.7 35.0 18
26/03/2020 16:50 9.3 33 269.0 600 0.0 8.5 30.7 11
26/03/2020 17:00 9.1 34 237.6 600 0.0 8.6 30.9 16
26/03/2020 17:10 8.8 35 205.1 600 0.0 9.3 33.3 17
26/03/2020 17:20 8.4 34 170.2 600 0.0 10.3 36.9 13
26/03/2020 17:30 8.1 37 136.8 600 0.0 9.4 34.0 13
26/03/2020 17:40 7.8 38 104.7 600 0.0 8.0 28.8 10
26/03/2020 17:50 7.5 40 74.4 600 0.0 7.6 27.5 14
26/03/2020 18:00 7.1 43 50.0 600 0.0 8.1 29.3 15
26/03/2020 18:10 6.7 45 27.3 222 0.0 8.4 30.3 18
26/03/2020 18:20 6.2 47 1.7 0 0.0 8.4 30.2 14
26/03/2020 18:30 6.0 48 0.0 0 0.0 8.2 29.4 9
26/03/2020 18:40 5.8 49 0.0 0 0.0 6.7 24.2 8
26/03/2020 18:50 5.5 49 0.0 0 0.0 7.3 26.2 10
26/03/2020 19:00 5.3 50 0.0 0 0.0 7.4 26.5 12
26/03/2020 19:10 5.2 51 0.0 0 0.0 7.7 27.7 14
26/03/2020 19:20 5.0 52 0.0 0 0.0 6.7 23.9 16
26/03/2020 19:30 4.8 53 0.0 0 0.0 7.6 27.4 18
26/03/2020 19:40 4.6 55 0.0 0 0.0 7.0 25.3 16
26/03/2020 19:50 4.4 56 0.0 0 0.0 6.2 22.3 18
26/03/2020 20:00 4.2 57 0.0 0 0.0 6.3 22.6 24
26/03/2020 20:10 3.9 58 0.0 0 0.0 5.7 20.4 24
26/03/2020 20:20 3.7 60 0.0 0 0.0 5.7 20.4 25
26/03/2020 20:30 3.7 60 0.0 0 0.0 6.1 22.0 19
26/03/2020 20:40 3.5 61 0.0 0 0.0 6.1 22.0 19
26/03/2020 20:50 3.4 62 0.0 0 0.0 6.2 22.2 18
26/03/2020 21:00 3.4 62 0.0 0 0.0 6.5 23.5 18
26/03/2020 21:10 3.4 62 0.0 0 0.0 6.3 22.5 11
26/03/2020 21:20 3.4 62 0.0 0 0.0 6.1 22.0 9
26/03/2020 21:30 3.0 64 0.0 0 0.0 5.8 20.9 8
26/03/2020 21:40 3.0 64 0.0 0 0.0 5.4 19.5 6
26/03/2020 21:50 3.0 65 0.0 0 0.0 5.4 19.3 6
26/03/2020 22:00 2.8 66 0.0 0 0.0 5.2 18.5 5
26/03/2020 22:10 2.6 68 0.0 0 0.0 5.0 17.8 6
26/03/2020 22:20 2.5 68 0.0 0 0.0 4.7 17.0 358
26/03/2020 22:30 2.6 67 0.0 0 0.0 4.7 17.0 355
26/03/2020 22:40 2.5 67 0.0 0 0.0 4.3 15.5 353
26/03/2020 22:50 2.5 67 0.0 0 0.0 4.0 14.2 344
26/03/2020 23:00 2.4 68 0.0 0 0.0 3.7 13.4 341
26/03/2020 23:10 2.2 69 0.0 0 0.0 3.9 14.0 350
26/03/2020 23:20 2.1 70 0.0 0 0.0 4.0 14.3 351
26/03/2020 23:30 1.9 71 0.0 0 0.0 3.9 14.1 352
26/03/2020 23:40 1.9 71 0.0 0 0.0 3.7 13.5 353
26/03/2020 23:50 1.8 71 0.0 0 0.0 4.1 14.9 356
Anterior Página 1 de 1 Siguiente

NOTA: Tipo de datos según el color:
   - Valores diarios o 10 minutos correctos
   - Valores diarios calculados a partir de un número de datos 10 minutos menor que 144 y mayor que 120, o de un número de datos semihorarios menor que 48 y mayor que 40 (caso de las estaciones de INTIA y del Ministerio)
   - Valores diez minutos estimados


Contacto        Enlaces        Aviso legal